sensor_id;sensor_type;location;lat;lon;timestamp;P1;durP1;ratioP1;P2;durP2;ratioP2
58659;SDS011;44429;45.110;20.622;2022-10-23T00:01:10;1.30;;;0.40;;
58659;SDS011;44429;45.110;20.622;2022-10-23T00:03:36;1.35;;;0.45;;
58659;SDS011;44429;45.110;20.622;2022-10-23T00:06:05;1.02;;;0.38;;
58659;SDS011;44429;45.110;20.622;2022-10-23T00:08:31;0.98;;;0.32;;
58659;SDS011;44429;45.110;20.622;2022-10-23T00:10:57;0.63;;;0.22;;
58659;SDS011;44429;45.110;20.622;2022-10-23T00:13:23;2.38;;;0.88;;
58659;SDS011;44429;45.110;20.622;2022-10-23T00:15:49;0.30;;;0.10;;
58659;SDS011;44429;45.110;20.622;2022-10-23T00:18:16;0.05;;;0.05;;
58659;SDS011;44429;45.110;20.622;2022-10-23T00:20:42;2.05;;;0.30;;
58659;SDS011;44429;45.110;20.622;2022-10-23T00:23:08;0.75;;;0.20;;
58659;SDS011;44429;45.110;20.622;2022-10-23T00:25:34;0.75;;;0.40;;
58659;SDS011;44429;45.110;20.622;2022-10-23T00:28:00;1.10;;;0.32;;
58659;SDS011;44429;45.110;20.622;2022-10-23T00:30:26;0.73;;;0.20;;
58659;SDS011;44429;45.110;20.622;2022-10-23T00:32:52;0.68;;;0.22;;
58659;SDS011;44429;45.110;20.622;2022-10-23T00:35:18;1.45;;;0.40;;
58659;SDS011;44429;45.110;20.622;2022-10-23T00:37:44;1.08;;;0.40;;
58659;SDS011;44429;45.110;20.622;2022-10-23T00:40:10;1.08;;;0.75;;
58659;SDS011;44429;45.110;20.622;2022-10-23T00:42:37;0.90;;;0.22;;
58659;SDS011;44429;45.110;20.622;2022-10-23T00:47:38;1.13;;;0.32;;
58659;SDS011;44429;45.110;20.622;2022-10-23T00:50:04;1.42;;;0.40;;
58659;SDS011;44429;45.110;20.622;2022-10-23T00:52:31;0.60;;;0.30;;
58659;SDS011;44429;45.110;20.622;2022-10-23T00:54:57;0.90;;;0.25;;
58659;SDS011;44429;45.110;20.622;2022-10-23T00:57:23;0.60;;;0.20;;
58659;SDS011;44429;45.110;20.622;2022-10-23T00:59:50;1.35;;;0.40;;
58659;SDS011;44429;45.110;20.622;2022-10-23T01:02:16;0.28;;;0.10;;
58659;SDS011;44429;45.110;20.622;2022-10-23T01:04:42;0.47;;;0.20;;
58659;SDS011;44429;45.110;20.622;2022-10-23T01:09:54;0.65;;;0.30;;
58659;SDS011;44429;45.110;20.622;2022-10-23T01:12:28;1.30;;;0.30;;
58659;SDS011;44429;45.110;20.622;2022-10-23T01:28:02;1.75;;;0.60;;
58659;SDS011;44429;45.110;20.622;2022-10-23T01:30:29;1.70;;;0.55;;
58659;SDS011;44429;45.110;20.622;2022-10-23T01:33:06;0.15;;;0.03;;
58659;SDS011;44429;45.110;20.622;2022-10-23T01:35:34;1.13;;;0.40;;
58659;SDS011;44429;45.110;20.622;2022-10-23T01:38:05;1.33;;;0.55;;
58659;SDS011;44429;45.110;20.622;2022-10-23T01:43:05;1.10;;;0.20;;
58659;SDS011;44429;45.110;20.622;2022-10-23T01:45:45;1.08;;;0.50;;
58659;SDS011;44429;45.110;20.622;2022-10-23T01:48:14;0.52;;;0.20;;
58659;SDS011;44429;45.110;20.622;2022-10-23T01:50:41;1.50;;;0.85;;
58659;SDS011;44429;45.110;20.622;2022-10-23T01:53:08;0.77;;;0.30;;
58659;SDS011;44429;45.110;20.622;2022-10-23T01:55:34;1.02;;;0.22;;
58659;SDS011;44429;45.110;20.622;2022-10-23T01:58:01;1.63;;;0.47;;
58659;SDS011;44429;45.110;20.622;2022-10-23T02:00:31;1.20;;;0.30;;
58659;SDS011;44429;45.110;20.622;2022-10-23T02:02:58;1.00;;;0.38;;
58659;SDS011;44429;45.110;20.622;2022-10-23T02:05:27;0.70;;;0.30;;
58659;SDS011;44429;45.110;20.622;2022-10-23T02:07:54;0.82;;;0.20;;
58659;SDS011;44429;45.110;20.622;2022-10-23T02:10:20;1.13;;;0.30;;
58659;SDS011;44429;45.110;20.622;2022-10-23T02:15:27;1.83;;;0.57;;
58659;SDS011;44429;45.110;20.622;2022-10-23T02:25:32;1.65;;;0.65;;
58659;SDS011;44429;45.110;20.622;2022-10-23T02:28:02;0.95;;;0.32;;
58659;SDS011;44429;45.110;20.622;2022-10-23T02:30:29;2.00;;;0.52;;
58659;SDS011;44429;45.110;20.622;2022-10-23T02:32:56;0.10;;;0.10;;
58659;SDS011;44429;45.110;20.622;2022-10-23T02:35:23;2.42;;;0.75;;
58659;SDS011;44429;45.110;20.622;2022-10-23T02:37:56;3.05;;;0.82;;
58659;SDS011;44429;45.110;20.622;2022-10-23T02:40:23;3.78;;;0.70;;
58659;SDS011;44429;45.110;20.622;2022-10-23T02:42:55;2.45;;;0.73;;
58659;SDS011;44429;45.110;20.622;2022-10-23T02:45:33;2.72;;;0.45;;
58659;SDS011;44429;45.110;20.622;2022-10-23T03:00:32;1.60;;;0.55;;
58659;SDS011;44429;45.110;20.622;2022-10-23T03:03:16;1.02;;;0.32;;
58659;SDS011;44429;45.110;20.622;2022-10-23T03:05:44;1.75;;;0.32;;
58659;SDS011;44429;45.110;20.622;2022-10-23T03:08:11;0.82;;;0.32;;
58659;SDS011;44429;45.110;20.622;2022-10-23T03:10:38;1.83;;;0.57;;
58659;SDS011;44429;45.110;20.622;2022-10-23T03:13:05;1.80;;;0.40;;
58659;SDS011;44429;45.110;20.622;2022-10-23T03:15:31;1.20;;;0.40;;
58659;SDS011;44429;45.110;20.622;2022-10-23T03:17:57;1.10;;;0.25;;
58659;SDS011;44429;45.110;20.622;2022-10-23T03:20:23;2.00;;;0.60;;
58659;SDS011;44429;45.110;20.622;2022-10-23T03:22:49;1.92;;;0.40;;
58659;SDS011;44429;45.110;20.622;2022-10-23T03:25:16;2.50;;;0.55;;
58659;SDS011;44429;45.110;20.622;2022-10-23T03:27:42;0.80;;;0.10;;
58659;SDS011;44429;45.110;20.622;2022-10-23T03:30:08;0.38;;;0.10;;
58659;SDS011;44429;45.110;20.622;2022-10-23T03:32:34;1.30;;;0.32;;
58659;SDS011;44429;45.110;20.622;2022-10-23T03:35:00;1.90;;;0.63;;
58659;SDS011;44429;45.110;20.622;2022-10-23T03:37:26;0.22;;;0.10;;
58659;SDS011;44429;45.110;20.622;2022-10-23T03:39:52;1.55;;;0.65;;
58659;SDS011;44429;45.110;20.622;2022-10-23T03:42:18;1.50;;;0.35;;
58659;SDS011;44429;45.110;20.622;2022-10-23T03:44:45;2.25;;;0.45;;
58659;SDS011;44429;45.110;20.622;2022-10-23T03:47:11;1.92;;;0.30;;
58659;SDS011;44429;45.110;20.622;2022-10-23T03:49:37;2.92;;;0.88;;
58659;SDS011;44429;45.110;20.622;2022-10-23T03:52:04;0.40;;;0.17;;
58659;SDS011;44429;45.110;20.622;2022-10-23T03:54:30;2.22;;;0.68;;
58659;SDS011;44429;45.110;20.622;2022-10-23T03:56:57;3.50;;;0.70;;
58659;SDS011;44429;45.110;20.622;2022-10-23T03:59:24;0.77;;;0.30;;
58659;SDS011;44429;45.110;20.622;2022-10-23T04:01:50;1.27;;;0.40;;
58659;SDS011;44429;45.110;20.622;2022-10-23T04:04:16;0.98;;;0.38;;
58659;SDS011;44429;45.110;20.622;2022-10-23T04:06:42;9.40;;;0.40;;
58659;SDS011;44429;45.110;20.622;2022-10-23T04:09:08;2.50;;;0.55;;
58659;SDS011;44429;45.110;20.622;2022-10-23T04:11:35;2.95;;;1.02;;
58659;SDS011;44429;45.110;20.622;2022-10-23T04:14:01;2.25;;;0.65;;
58659;SDS011;44429;45.110;20.622;2022-10-23T04:16:27;1.15;;;0.47;;
58659;SDS011;44429;45.110;20.622;2022-10-23T04:18:53;1.13;;;0.32;;
58659;SDS011;44429;45.110;20.622;2022-10-23T04:21:19;1.55;;;0.50;;
58659;SDS011;44429;45.110;20.622;2022-10-23T04:23:45;4.13;;;0.95;;
58659;SDS011;44429;45.110;20.622;2022-10-23T04:26:11;1.30;;;0.50;;
58659;SDS011;44429;45.110;20.622;2022-10-23T04:28:37;1.13;;;0.43;;
58659;SDS011;44429;45.110;20.622;2022-10-23T04:31:03;1.42;;;0.47;;
58659;SDS011;44429;45.110;20.622;2022-10-23T04:33:30;3.47;;;1.02;;
58659;SDS011;44429;45.110;20.622;2022-10-23T04:35:56;1.90;;;0.68;;
58659;SDS011;44429;45.110;20.622;2022-10-23T04:38:22;1.05;;;0.45;;
58659;SDS011;44429;45.110;20.622;2022-10-23T04:40:48;1.30;;;0.40;;
58659;SDS011;44429;45.110;20.622;2022-10-23T04:43:14;2.03;;;0.50;;
58659;SDS011;44429;45.110;20.622;2022-10-23T04:45:40;0.93;;;0.25;;
58659;SDS011;44429;45.110;20.622;2022-10-23T04:48:06;2.13;;;0.77;;
58659;SDS011;44429;45.110;20.622;2022-10-23T04:50:32;1.38;;;0.63;;
58659;SDS011;44429;45.110;20.622;2022-10-23T04:52:58;0.20;;;0.10;;
58659;SDS011;44429;45.110;20.622;2022-10-23T04:55:24;1.13;;;0.40;;
58659;SDS011;44429;45.110;20.622;2022-10-23T04:57:51;1.45;;;0.60;;
58659;SDS011;44429;45.110;20.622;2022-10-23T05:00:17;1.48;;;0.50;;
58659;SDS011;44429;45.110;20.622;2022-10-23T05:02:43;2.50;;;0.73;;
58659;SDS011;44429;45.110;20.622;2022-10-23T05:05:10;2.40;;;0.65;;
58659;SDS011;44429;45.110;20.622;2022-10-23T05:07:36;4.10;;;1.88;;
58659;SDS011;44429;45.110;20.622;2022-10-23T05:10:02;3.85;;;0.77;;
58659;SDS011;44429;45.110;20.622;2022-10-23T05:12:29;1.88;;;0.43;;
58659;SDS011;44429;45.110;20.622;2022-10-23T05:14:55;0.82;;;0.28;;
58659;SDS011;44429;45.110;20.622;2022-10-23T05:17:42;1.90;;;0.47;;
58659;SDS011;44429;45.110;20.622;2022-10-23T05:20:08;1.63;;;0.50;;
58659;SDS011;44429;45.110;20.622;2022-10-23T05:22:36;1.67;;;0.52;;
58659;SDS011;44429;45.110;20.622;2022-10-23T05:25:03;5.47;;;1.08;;
58659;SDS011;44429;45.110;20.622;2022-10-23T05:27:30;4.28;;;0.98;;
58659;SDS011;44429;45.110;20.622;2022-10-23T05:29:56;3.20;;;0.63;;
58659;SDS011;44429;45.110;20.622;2022-10-23T05:32:22;1.40;;;0.50;;
58659;SDS011;44429;45.110;20.622;2022-10-23T05:34:50;2.45;;;0.70;;
58659;SDS011;44429;45.110;20.622;2022-10-23T05:37:16;4.38;;;1.10;;
58659;SDS011;44429;45.110;20.622;2022-10-23T05:39:42;4.53;;;1.38;;
58659;SDS011;44429;45.110;20.622;2022-10-23T05:42:08;3.35;;;1.00;;
58659;SDS011;44429;45.110;20.622;2022-10-23T05:44:34;3.40;;;0.90;;
58659;SDS011;44429;45.110;20.622;2022-10-23T05:47:00;3.85;;;1.25;;
58659;SDS011;44429;45.110;20.622;2022-10-23T05:49:27;4.05;;;1.27;;
58659;SDS011;44429;45.110;20.622;2022-10-23T05:51:53;3.05;;;1.08;;
58659;SDS011;44429;45.110;20.622;2022-10-23T05:54:19;5.40;;;0.98;;
58659;SDS011;44429;45.110;20.622;2022-10-23T05:56:45;2.55;;;0.75;;
58659;SDS011;44429;45.110;20.622;2022-10-23T05:59:11;6.18;;;2.35;;
58659;SDS011;44429;45.110;20.622;2022-10-23T06:01:37;12.40;;;4.05;;
58659;SDS011;44429;45.110;20.622;2022-10-23T06:04:03;8.23;;;3.92;;
58659;SDS011;44429;45.110;20.622;2022-10-23T06:06:29;7.05;;;2.42;;
58659;SDS011;44429;45.110;20.622;2022-10-23T06:08:55;9.45;;;2.92;;
58659;SDS011;44429;45.110;20.622;2022-10-23T06:11:22;7.57;;;1.75;;
58659;SDS011;44429;45.110;20.622;2022-10-23T06:13:48;4.13;;;1.52;;
58659;SDS011;44429;45.110;20.622;2022-10-23T06:16:15;6.45;;;2.25;;
58659;SDS011;44429;45.110;20.622;2022-10-23T06:18:41;14.05;;;4.88;;
58659;SDS011;44429;45.110;20.622;2022-10-23T06:21:08;12.65;;;3.85;;
58659;SDS011;44429;45.110;20.622;2022-10-23T06:23:36;11.75;;;5.07;;
58659;SDS011;44429;45.110;20.622;2022-10-23T06:26:03;13.63;;;2.78;;
58659;SDS011;44429;45.110;20.622;2022-10-23T06:28:29;3.92;;;1.45;;
58659;SDS011;44429;45.110;20.622;2022-10-23T06:30:55;5.13;;;1.67;;
58659;SDS011;44429;45.110;20.622;2022-10-23T06:33:21;5.75;;;2.47;;
58659;SDS011;44429;45.110;20.622;2022-10-23T06:35:47;5.88;;;2.25;;
58659;SDS011;44429;45.110;20.622;2022-10-23T06:38:14;12.52;;;3.25;;
58659;SDS011;44429;45.110;20.622;2022-10-23T06:40:40;24.73;;;8.18;;
58659;SDS011;44429;45.110;20.622;2022-10-23T06:43:06;11.30;;;4.38;;
58659;SDS011;44429;45.110;20.622;2022-10-23T06:45:33;44.97;;;16.17;;
58659;SDS011;44429;45.110;20.622;2022-10-23T06:47:59;10.00;;;4.70;;
58659;SDS011;44429;45.110;20.622;2022-10-23T06:50:26;10.20;;;4.28;;
58659;SDS011;44429;45.110;20.622;2022-10-23T06:52:54;7.65;;;2.90;;
58659;SDS011;44429;45.110;20.622;2022-10-23T06:55:21;3.80;;;1.60;;
58659;SDS011;44429;45.110;20.622;2022-10-23T06:57:47;1.75;;;0.60;;
58659;SDS011;44429;45.110;20.622;2022-10-23T07:00:13;1.85;;;0.43;;
58659;SDS011;44429;45.110;20.622;2022-10-23T07:02:40;1.38;;;0.40;;
58659;SDS011;44429;45.110;20.622;2022-10-23T07:05:06;2.67;;;1.00;;
58659;SDS011;44429;45.110;20.622;2022-10-23T07:07:32;5.45;;;1.25;;
58659;SDS011;44429;45.110;20.622;2022-10-23T07:09:58;1.60;;;0.40;;
58659;SDS011;44429;45.110;20.622;2022-10-23T07:12:24;2.53;;;0.98;;
58659;SDS011;44429;45.110;20.622;2022-10-23T07:14:50;2.40;;;0.60;;
58659;SDS011;44429;45.110;20.622;2022-10-23T07:17:16;3.38;;;0.90;;
58659;SDS011;44429;45.110;20.622;2022-10-23T07:19:42;7.40;;;1.10;;
58659;SDS011;44429;45.110;20.622;2022-10-23T07:22:08;3.03;;;0.95;;
58659;SDS011;44429;45.110;20.622;2022-10-23T07:24:34;1.73;;;0.60;;
58659;SDS011;44429;45.110;20.622;2022-10-23T07:27:02;5.60;;;1.75;;
58659;SDS011;44429;45.110;20.622;2022-10-23T07:29:29;2.83;;;1.15;;
58659;SDS011;44429;45.110;20.622;2022-10-23T07:31:55;6.40;;;1.38;;
58659;SDS011;44429;45.110;20.622;2022-10-23T07:34:22;5.43;;;2.08;;
58659;SDS011;44429;45.110;20.622;2022-10-23T07:36:48;8.13;;;3.42;;
58659;SDS011;44429;45.110;20.622;2022-10-23T07:39:15;7.57;;;3.25;;
58659;SDS011;44429;45.110;20.622;2022-10-23T07:41:41;6.57;;;3.08;;
58659;SDS011;44429;45.110;20.622;2022-10-23T07:44:07;8.75;;;3.30;;
58659;SDS011;44429;45.110;20.622;2022-10-23T07:46:33;10.43;;;3.28;;
58659;SDS011;44429;45.110;20.622;2022-10-23T07:48:59;11.52;;;3.92;;
58659;SDS011;44429;45.110;20.622;2022-10-23T07:51:25;10.32;;;4.20;;
58659;SDS011;44429;45.110;20.622;2022-10-23T07:53:51;11.02;;;3.60;;
58659;SDS011;44429;45.110;20.622;2022-10-23T07:56:24;11.93;;;4.35;;
58659;SDS011;44429;45.110;20.622;2022-10-23T07:58:54;13.40;;;5.13;;
58659;SDS011;44429;45.110;20.622;2022-10-23T08:01:30;12.50;;;4.60;;
58659;SDS011;44429;45.110;20.622;2022-10-23T08:03:56;12.23;;;5.68;;
58659;SDS011;44429;45.110;20.622;2022-10-23T08:06:22;11.60;;;4.85;;
58659;SDS011;44429;45.110;20.622;2022-10-23T08:08:48;12.32;;;4.18;;
58659;SDS011;44429;45.110;20.622;2022-10-23T08:11:15;10.15;;;3.97;;
58659;SDS011;44429;45.110;20.622;2022-10-23T08:13:43;5.60;;;2.35;;
58659;SDS011;44429;45.110;20.622;2022-10-23T08:16:09;9.15;;;3.25;;
58659;SDS011;44429;45.110;20.622;2022-10-23T08:18:35;6.85;;;2.30;;
58659;SDS011;44429;45.110;20.622;2022-10-23T08:21:02;13.93;;;2.63;;
58659;SDS011;44429;45.110;20.622;2022-10-23T08:23:28;6.72;;;2.67;;
58659;SDS011;44429;45.110;20.622;2022-10-23T08:25:57;15.65;;;4.03;;
58659;SDS011;44429;45.110;20.622;2022-10-23T08:28:24;10.13;;;4.03;;
58659;SDS011;44429;45.110;20.622;2022-10-23T08:30:50;8.85;;;3.42;;
58659;SDS011;44429;45.110;20.622;2022-10-23T08:33:17;11.00;;;2.50;;
58659;SDS011;44429;45.110;20.622;2022-10-23T08:35:43;6.18;;;2.50;;
58659;SDS011;44429;45.110;20.622;2022-10-23T08:38:09;7.72;;;2.22;;
58659;SDS011;44429;45.110;20.622;2022-10-23T08:40:35;5.28;;;2.00;;
58659;SDS011;44429;45.110;20.622;2022-10-23T08:43:02;8.95;;;2.80;;
58659;SDS011;44429;45.110;20.622;2022-10-23T08:46:13;11.57;;;4.00;;
58659;SDS011;44429;45.110;20.622;2022-10-23T08:48:22;11.23;;;4.70;;
58659;SDS011;44429;45.110;20.622;2022-10-23T08:50:49;12.30;;;5.75;;
58659;SDS011;44429;45.110;20.622;2022-10-23T08:56:00;13.70;;;4.70;;
58659;SDS011;44429;45.110;20.622;2022-10-23T08:58:46;12.13;;;4.15;;
58659;SDS011;44429;45.110;20.622;2022-10-23T09:01:37;13.82;;;4.07;;
58659;SDS011;44429;45.110;20.622;2022-10-23T09:04:01;8.23;;;2.95;;
58659;SDS011;44429;45.110;20.622;2022-10-23T09:06:30;8.63;;;2.50;;
58659;SDS011;44429;45.110;20.622;2022-10-23T09:09:04;12.00;;;3.50;;
58659;SDS011;44429;45.110;20.622;2022-10-23T09:11:43;12.38;;;3.35;;
58659;SDS011;44429;45.110;20.622;2022-10-23T09:19:11;12.70;;;5.07;;
58659;SDS011;44429;45.110;20.622;2022-10-23T09:21:38;16.63;;;6.15;;
58659;SDS011;44429;45.110;20.622;2022-10-23T09:24:05;13.07;;;7.05;;
58659;SDS011;44429;45.110;20.622;2022-10-23T09:26:31;14.95;;;6.85;;
58659;SDS011;44429;45.110;20.622;2022-10-23T09:29:01;20.20;;;8.85;;
58659;SDS011;44429;45.110;20.622;2022-10-23T09:31:31;24.08;;;10.38;;
58659;SDS011;44429;45.110;20.622;2022-10-23T09:33:58;21.20;;;10.32;;
58659;SDS011;44429;45.110;20.622;2022-10-23T09:36:25;22.55;;;9.07;;
58659;SDS011;44429;45.110;20.622;2022-10-23T09:38:54;24.83;;;9.60;;
58659;SDS011;44429;45.110;20.622;2022-10-23T09:41:28;17.60;;;7.95;;
58659;SDS011;44429;45.110;20.622;2022-10-23T09:46:39;25.15;;;10.70;;
58659;SDS011;44429;45.110;20.622;2022-10-23T09:49:13;13.32;;;5.85;;
58659;SDS011;44429;45.110;20.622;2022-10-23T09:51:39;9.25;;;4.00;;
58659;SDS011;44429;45.110;20.622;2022-10-23T09:54:12;19.10;;;7.60;;
58659;SDS011;44429;45.110;20.622;2022-10-23T09:56:40;26.77;;;11.70;;
58659;SDS011;44429;45.110;20.622;2022-10-23T10:01:45;17.20;;;7.05;;
58659;SDS011;44429;45.110;20.622;2022-10-23T10:04:11;18.15;;;7.20;;
58659;SDS011;44429;45.110;20.622;2022-10-23T10:06:37;12.80;;;5.45;;
58659;SDS011;44429;45.110;20.622;2022-10-23T10:09:11;17.27;;;4.05;;
58659;SDS011;44429;45.110;20.622;2022-10-23T10:11:48;13.95;;;5.13;;
58659;SDS011;44429;45.110;20.622;2022-10-23T10:14:39;13.50;;;4.97;;
58659;SDS011;44429;45.110;20.622;2022-10-23T10:24:58;15.52;;;6.95;;
58659;SDS011;44429;45.110;20.622;2022-10-23T10:27:39;14.07;;;6.03;;
58659;SDS011;44429;45.110;20.622;2022-10-23T10:40:32;37.63;;;17.05;;
58659;SDS011;44429;45.110;20.622;2022-10-23T10:48:00;15.32;;;5.93;;
58659;SDS011;44429;45.110;20.622;2022-10-23T10:50:30;7.80;;;3.00;;
58659;SDS011;44429;45.110;20.622;2022-10-23T10:53:02;5.28;;;2.08;;
58659;SDS011;44429;45.110;20.622;2022-10-23T10:55:37;7.00;;;2.38;;
58659;SDS011;44429;45.110;20.622;2022-10-23T11:00:42;3.28;;;0.98;;
58659;SDS011;44429;45.110;20.622;2022-10-23T11:05:45;3.20;;;1.02;;
58659;SDS011;44429;45.110;20.622;2022-10-23T11:10:41;2.95;;;0.85;;
58659;SDS011;44429;45.110;20.622;2022-10-23T11:13:24;3.38;;;0.80;;
58659;SDS011;44429;45.110;20.622;2022-10-23T11:15:51;2.25;;;0.63;;
58659;SDS011;44429;45.110;20.622;2022-10-23T11:18:21;2.50;;;0.70;;
58659;SDS011;44429;45.110;20.622;2022-10-23T11:21:34;1.98;;;0.60;;
58659;SDS011;44429;45.110;20.622;2022-10-23T11:26:30;4.38;;;1.75;;
58659;SDS011;44429;45.110;20.622;2022-10-23T11:37:03;3.58;;;1.15;;
58659;SDS011;44429;45.110;20.622;2022-10-23T11:39:30;2.25;;;0.73;;
58659;SDS011;44429;45.110;20.622;2022-10-23T11:47:02;6.50;;;2.10;;
58659;SDS011;44429;45.110;20.622;2022-10-23T11:49:28;6.03;;;2.72;;
58659;SDS011;44429;45.110;20.622;2022-10-23T11:52:02;4.40;;;1.45;;
58659;SDS011;44429;45.110;20.622;2022-10-23T11:54:29;5.82;;;1.80;;
58659;SDS011;44429;45.110;20.622;2022-10-23T11:59:28;3.28;;;0.93;;
58659;SDS011;44429;45.110;20.622;2022-10-23T12:01:57;5.20;;;1.20;;
58659;SDS011;44429;45.110;20.622;2022-10-23T12:04:25;4.30;;;1.30;;
58659;SDS011;44429;45.110;20.622;2022-10-23T12:06:54;3.40;;;1.15;;
58659;SDS011;44429;45.110;20.622;2022-10-23T12:09:32;4.40;;;1.13;;
58659;SDS011;44429;45.110;20.622;2022-10-23T12:12:03;5.40;;;1.95;;
58659;SDS011;44429;45.110;20.622;2022-10-23T12:14:31;3.88;;;1.17;;
58659;SDS011;44429;45.110;20.622;2022-10-23T12:16:58;6.32;;;2.17;;
58659;SDS011;44429;45.110;20.622;2022-10-23T12:19:26;1.42;;;0.50;;
58659;SDS011;44429;45.110;20.622;2022-10-23T12:21:54;5.82;;;1.77;;
58659;SDS011;44429;45.110;20.622;2022-10-23T12:24:32;5.88;;;1.98;;
58659;SDS011;44429;45.110;20.622;2022-10-23T12:27:13;6.63;;;2.15;;
58659;SDS011;44429;45.110;20.622;2022-10-23T12:32:33;4.95;;;1.50;;
58659;SDS011;44429;45.110;20.622;2022-10-23T12:35:17;3.40;;;1.15;;
58659;SDS011;44429;45.110;20.622;2022-10-23T12:40:10;2.05;;;0.60;;
58659;SDS011;44429;45.110;20.622;2022-10-23T12:42:37;5.80;;;1.38;;
58659;SDS011;44429;45.110;20.622;2022-10-23T12:47:35;5.25;;;1.35;;
58659;SDS011;44429;45.110;20.622;2022-10-23T12:50:02;3.65;;;1.13;;
58659;SDS011;44429;45.110;20.622;2022-10-23T12:52:28;3.72;;;1.35;;
58659;SDS011;44429;45.110;20.622;2022-10-23T12:54:54;4.45;;;1.20;;
58659;SDS011;44429;45.110;20.622;2022-10-23T12:57:25;3.60;;;1.23;;
58659;SDS011;44429;45.110;20.622;2022-10-23T12:59:54;4.28;;;1.10;;
58659;SDS011;44429;45.110;20.622;2022-10-23T13:02:25;2.08;;;0.63;;
58659;SDS011;44429;45.110;20.622;2022-10-23T13:04:52;3.42;;;0.82;;
58659;SDS011;44429;45.110;20.622;2022-10-23T13:07:19;4.25;;;1.52;;
58659;SDS011;44429;45.110;20.622;2022-10-23T13:09:46;9.85;;;4.65;;
58659;SDS011;44429;45.110;20.622;2022-10-23T13:12:22;15.38;;;6.53;;
58659;SDS011;44429;45.110;20.622;2022-10-23T13:14:57;11.98;;;3.88;;
58659;SDS011;44429;45.110;20.622;2022-10-23T13:17:35;8.18;;;3.10;;
58659;SDS011;44429;45.110;20.622;2022-10-23T13:20:35;7.82;;;3.40;;
58659;SDS011;44429;45.110;20.622;2022-10-23T13:22:58;8.38;;;3.38;;
58659;SDS011;44429;45.110;20.622;2022-10-23T13:25:26;8.60;;;3.25;;
58659;SDS011;44429;45.110;20.622;2022-10-23T13:30:39;7.78;;;3.03;;
58659;SDS011;44429;45.110;20.622;2022-10-23T13:33:41;6.05;;;2.45;;
58659;SDS011;44429;45.110;20.622;2022-10-23T13:38:35;5.60;;;1.58;;
58659;SDS011;44429;45.110;20.622;2022-10-23T13:41:02;3.15;;;1.02;;
58659;SDS011;44429;45.110;20.622;2022-10-23T13:43:29;2.85;;;1.02;;
58659;SDS011;44429;45.110;20.622;2022-10-23T13:45:56;3.05;;;1.08;;
58659;SDS011;44429;45.110;20.622;2022-10-23T13:48:23;5.07;;;1.52;;
58659;SDS011;44429;45.110;20.622;2022-10-23T13:50:49;2.88;;;0.85;;
58659;SDS011;44429;45.110;20.622;2022-10-23T13:53:15;3.50;;;1.00;;
58659;SDS011;44429;45.110;20.622;2022-10-23T13:55:42;4.20;;;0.88;;
58659;SDS011;44429;45.110;20.622;2022-10-23T13:58:08;3.75;;;1.10;;
58659;SDS011;44429;45.110;20.622;2022-10-23T14:00:35;4.32;;;1.25;;
58659;SDS011;44429;45.110;20.622;2022-10-23T14:03:02;3.63;;;1.15;;
58659;SDS011;44429;45.110;20.622;2022-10-23T14:05:28;1.63;;;0.50;;
58659;SDS011;44429;45.110;20.622;2022-10-23T14:07:54;7.75;;;1.48;;
58659;SDS011;44429;45.110;20.622;2022-10-23T14:10:20;1.58;;;0.50;;
58659;SDS011;44429;45.110;20.622;2022-10-23T14:12:48;5.68;;;1.77;;
58659;SDS011;44429;45.110;20.622;2022-10-23T14:15:19;3.10;;;0.80;;
58659;SDS011;44429;45.110;20.622;2022-10-23T14:17:45;3.97;;;1.08;;
58659;SDS011;44429;45.110;20.622;2022-10-23T14:20:11;4.20;;;1.15;;
58659;SDS011;44429;45.110;20.622;2022-10-23T14:22:37;5.25;;;2.13;;
58659;SDS011;44429;45.110;20.622;2022-10-23T14:25:04;0.55;;;0.20;;
58659;SDS011;44429;45.110;20.622;2022-10-23T14:27:30;2.53;;;0.63;;
58659;SDS011;44429;45.110;20.622;2022-10-23T14:29:56;2.28;;;0.65;;
58659;SDS011;44429;45.110;20.622;2022-10-23T14:32:23;3.38;;;0.90;;
58659;SDS011;44429;45.110;20.622;2022-10-23T14:34:50;2.80;;;0.60;;
58659;SDS011;44429;45.110;20.622;2022-10-23T14:37:17;4.05;;;0.70;;
58659;SDS011;44429;45.110;20.622;2022-10-23T14:39:44;3.58;;;0.93;;
58659;SDS011;44429;45.110;20.622;2022-10-23T14:42:10;4.50;;;1.17;;
58659;SDS011;44429;45.110;20.622;2022-10-23T14:44:36;5.22;;;1.17;;
58659;SDS011;44429;45.110;20.622;2022-10-23T14:47:02;4.60;;;0.73;;
58659;SDS011;44429;45.110;20.622;2022-10-23T14:49:28;3.22;;;1.25;;
58659;SDS011;44429;45.110;20.622;2022-10-23T14:51:55;3.83;;;1.30;;
58659;SDS011;44429;45.110;20.622;2022-10-23T14:54:21;4.30;;;1.50;;
58659;SDS011;44429;45.110;20.622;2022-10-23T14:56:47;5.38;;;0.70;;
58659;SDS011;44429;45.110;20.622;2022-10-23T14:59:13;3.72;;;1.02;;
58659;SDS011;44429;45.110;20.622;2022-10-23T15:01:40;4.28;;;1.38;;
58659;SDS011;44429;45.110;20.622;2022-10-23T15:04:07;3.63;;;0.80;;
58659;SDS011;44429;45.110;20.622;2022-10-23T15:06:33;4.82;;;1.30;;
58659;SDS011;44429;45.110;20.622;2022-10-23T15:09:00;13.95;;;4.97;;
58659;SDS011;44429;45.110;20.622;2022-10-23T15:11:26;5.05;;;1.73;;
58659;SDS011;44429;45.110;20.622;2022-10-23T15:13:52;2.50;;;1.13;;
58659;SDS011;44429;45.110;20.622;2022-10-23T15:16:18;4.07;;;1.15;;
58659;SDS011;44429;45.110;20.622;2022-10-23T15:18:45;3.30;;;0.90;;
58659;SDS011;44429;45.110;20.622;2022-10-23T15:21:11;7.72;;;1.35;;
58659;SDS011;44429;45.110;20.622;2022-10-23T15:23:38;2.38;;;1.00;;
58659;SDS011;44429;45.110;20.622;2022-10-23T15:26:12;6.40;;;1.35;;
58659;SDS011;44429;45.110;20.622;2022-10-23T15:28:40;2.45;;;0.82;;
58659;SDS011;44429;45.110;20.622;2022-10-23T15:31:21;4.03;;;1.33;;
58659;SDS011;44429;45.110;20.622;2022-10-23T15:33:48;5.10;;;0.93;;
58659;SDS011;44429;45.110;20.622;2022-10-23T15:36:14;3.05;;;1.13;;
58659;SDS011;44429;45.110;20.622;2022-10-23T15:38:40;3.95;;;1.30;;
58659;SDS011;44429;45.110;20.622;2022-10-23T15:41:12;4.22;;;1.15;;
58659;SDS011;44429;45.110;20.622;2022-10-23T15:43:39;3.88;;;1.35;;
58659;SDS011;44429;45.110;20.622;2022-10-23T15:46:05;5.05;;;1.20;;
58659;SDS011;44429;45.110;20.622;2022-10-23T15:48:31;4.82;;;1.58;;
58659;SDS011;44429;45.110;20.622;2022-10-23T15:50:57;4.97;;;1.45;;
58659;SDS011;44429;45.110;20.622;2022-10-23T15:53:23;6.82;;;1.45;;
58659;SDS011;44429;45.110;20.622;2022-10-23T15:55:50;8.23;;;1.67;;
58659;SDS011;44429;45.110;20.622;2022-10-23T15:58:16;6.10;;;2.25;;
58659;SDS011;44429;45.110;20.622;2022-10-23T16:00:42;6.82;;;2.17;;
58659;SDS011;44429;45.110;20.622;2022-10-23T16:03:08;4.60;;;1.88;;
58659;SDS011;44429;45.110;20.622;2022-10-23T16:05:34;5.43;;;1.50;;
58659;SDS011;44429;45.110;20.622;2022-10-23T16:08:01;4.32;;;1.05;;
58659;SDS011;44429;45.110;20.622;2022-10-23T16:10:27;6.72;;;2.40;;
58659;SDS011;44429;45.110;20.622;2022-10-23T16:12:53;4.47;;;1.70;;
58659;SDS011;44429;45.110;20.622;2022-10-23T16:15:19;8.30;;;2.28;;
58659;SDS011;44429;45.110;20.622;2022-10-23T16:17:45;7.15;;;2.45;;
58659;SDS011;44429;45.110;20.622;2022-10-23T16:20:13;5.78;;;1.75;;
58659;SDS011;44429;45.110;20.622;2022-10-23T16:22:39;7.43;;;1.90;;
58659;SDS011;44429;45.110;20.622;2022-10-23T16:25:05;7.55;;;2.08;;
58659;SDS011;44429;45.110;20.622;2022-10-23T16:27:31;5.85;;;2.03;;
58659;SDS011;44429;45.110;20.622;2022-10-23T16:29:57;7.97;;;2.58;;
58659;SDS011;44429;45.110;20.622;2022-10-23T16:32:23;7.32;;;2.13;;
58659;SDS011;44429;45.110;20.622;2022-10-23T16:34:50;4.97;;;1.25;;